Terminal Aerodrome Forecast
Issued by NWS

Home | Current Version | Previous Version | Text Only | Print | Product List | Glossary On
Versions: 1 2 3 4 5 6 7 8 9 10 11 12
000
FTUS44 KCRP 270500
TAFLRD
TAF
KLRD 270521Z 2706/2806 VRB03KT P6SM SKC
     FM271400 07006KT P6SM SKC
     FM280100 11007KT P6SM SKC=

USA.gov is the U.S. government's official web portal to all federal, state and local government web resources and services.